createdAt,value
2017-06-19T00:00:23.307Z,19.1
2017-06-19T00:01:22.672Z,19.05
2017-06-19T00:02:23.292Z,19.01
2017-06-19T00:03:22.974Z,18.98
2017-06-19T00:04:22.971Z,19.01
2017-06-19T00:05:22.956Z,18.84
2017-06-19T00:06:23.257Z,19.02
2017-06-19T00:07:22.934Z,18.97
2017-06-19T00:08:22.612Z,18.98
2017-06-19T00:09:22.609Z,18.79
2017-06-19T00:10:22.909Z,18.95
2017-06-19T00:11:23.216Z,18.79
2017-06-19T00:12:23.203Z,18.95
2017-06-19T00:13:23.201Z,18.91
2017-06-19T00:14:23.186Z,18.87
2017-06-19T00:15:22.860Z,18.87
2017-06-19T00:16:22.551Z,18.8
2017-06-19T00:17:22.844Z,18.84
2017-06-19T00:18:22.839Z,18.8
2017-06-19T00:19:22.520Z,18.8
2017-06-19T00:20:23.132Z,18.87
2017-06-19T00:21:23.121Z,18.77
2017-06-19T00:22:22.796Z,18.79
2017-06-19T00:23:22.791Z,18.72
2017-06-19T00:24:22.784Z,18.8
2017-06-19T00:25:22.775Z,18.76
2017-06-19T00:26:22.768Z,18.83
2017-06-19T00:27:23.068Z,18.77
2017-06-19T00:28:22.745Z,18.77
2017-06-19T00:29:23.064Z,18.77
2017-06-19T00:30:23.039Z,18.79
2017-06-19T00:31:22.717Z,18.76
2017-06-19T00:32:23.021Z,18.74
2017-06-19T00:33:22.701Z,18.72
2017-06-19T00:34:23.002Z,18.72
2017-06-19T00:35:22.685Z,18.76
2017-06-19T00:36:23.037Z,18.76
2017-06-19T00:37:22.663Z,18.72
2017-06-19T00:38:22.655Z,18.65
2017-06-19T00:39:22.958Z,18.65
2017-06-19T00:40:22.643Z,18.59
2017-06-19T00:41:22.629Z,18.67
2017-06-19T00:42:22.935Z,18.65
2017-06-19T00:43:22.616Z,18.68
2017-06-19T00:44:22.916Z,18.55
2017-06-19T00:45:22.911Z,18.64
2017-06-19T00:46:22.584Z,18.67
2017-06-19T00:47:22.572Z,18.49
2017-06-19T00:48:22.251Z,18.5
2017-06-19T00:49:22.244Z,18.61
2017-06-19T00:50:22.856Z,18.52
2017-06-19T00:51:22.548Z,18.5
2017-06-19T00:52:22.847Z,18.5
2017-06-19T00:53:22.517Z,18.46
2017-06-19T00:54:22.826Z,18.46
2017-06-19T00:55:22.506Z,18.43
2017-06-19T00:56:22.494Z,18.49
2017-06-19T00:57:22.485Z,18.4
2017-06-19T00:58:22.469Z,18.44
2017-06-19T00:59:22.466Z,18.47
2017-06-19T01:00:22.766Z,18.42
2017-06-19T01:01:22.131Z,18.42
2017-06-19T01:02:22.748Z,18.34
2017-06-19T01:03:22.736Z,18.39
2017-06-19T01:04:22.106Z,18.34
2017-06-19T01:05:22.404Z,18.42
2017-06-19T01:06:22.747Z,18.34
2017-06-19T01:07:22.391Z,18.33
2017-06-19T01:08:22.691Z,18.34
2017-06-19T01:09:22.679Z,18.29
2017-06-19T01:10:22.049Z,18.27
2017-06-19T01:11:22.661Z,18.28
2017-06-19T01:12:22.347Z,18.27
2017-06-19T01:13:22.666Z,18.33
2017-06-19T01:14:22.637Z,18.24
2017-06-19T01:15:22.655Z,18.18
2017-06-19T01:16:22.619Z,18.25
2017-06-19T01:17:22.612Z,18.21
2017-06-19T01:18:22.286Z,18.21
2017-06-19T01:19:22.275Z,18.24
2017-06-19T01:20:22.268Z,18.21
2017-06-19T01:21:22.257Z,18.17
2017-06-19T01:22:22.252Z,18.18
2017-06-19T01:23:22.239Z,18.17
2017-06-19T01:24:22.232Z,18.19
2017-06-19T01:25:22.216Z,18.15
2017-06-19T01:26:22.527Z,18.13
2017-06-19T01:27:21.889Z,18.13
2017-06-19T01:28:22.191Z,18.13
2017-06-19T01:29:22.383Z,18.17
2017-06-19T01:30:22.177Z,18.17
2017-06-19T01:31:22.166Z,18.15
2017-06-19T01:32:22.153Z,18.06
2017-06-19T01:33:22.145Z,18.1
2017-06-19T01:34:22.135Z,18.03
2017-06-19T01:35:22.439Z,18.13
2017-06-19T01:36:22.119Z,18.03
2017-06-19T01:37:22.107Z,18
2017-06-19T01:38:22.412Z,18.09
2017-06-19T01:39:22.089Z,17.94
2017-06-19T01:40:22.390Z,18.03
2017-06-19T01:41:22.065Z,17.91
2017-06-19T01:42:22.082Z,18.02
2017-06-19T01:43:22.049Z,18
2017-06-19T01:44:22.351Z,17.99
2017-06-19T01:45:22.343Z,18
2017-06-19T01:46:22.330Z,17.94
2017-06-19T01:47:22.325Z,17.88
2017-06-19T01:48:22.313Z,17.91
2017-06-19T01:49:21.998Z,17.89
2017-06-19T01:50:22.293Z,17.85
2017-06-19T01:51:22.286Z,17.88
2017-06-19T01:52:21.960Z,17.84
2017-06-19T01:53:22.005Z,17.91
2017-06-19T01:54:21.944Z,17.81
2017-06-19T01:55:22.247Z,17.85
2017-06-19T01:56:21.920Z,17.82
2017-06-19T01:57:21.913Z,17.84
2017-06-19T01:58:21.905Z,17.85
2017-06-19T01:59:21.891Z,17.82
2017-06-19T02:00:22.202Z,17.84
2017-06-19T02:01:22.188Z,17.82
2017-06-19T02:02:22.182Z,17.84
2017-06-19T02:03:21.856Z,17.81
2017-06-19T02:04:21.846Z,17.78
2017-06-19T02:05:21.838Z,17.79
2017-06-19T02:06:21.829Z,17.84
2017-06-19T02:07:21.817Z,17.79
2017-06-19T02:08:21.807Z,17.81
2017-06-19T02:09:21.484Z,17.81
2017-06-19T02:10:22.103Z,17.81
2017-06-19T02:11:21.780Z,17.79
2017-06-19T02:12:22.083Z,17.84
2017-06-19T02:13:21.759Z,17.81
2017-06-19T02:14:21.756Z,17.81
2017-06-19T02:15:22.054Z,17.81
2017-06-19T02:16:21.731Z,17.82
2017-06-19T02:17:22.030Z,17.81
2017-06-19T02:18:21.401Z,17.78
2017-06-19T02:19:22.010Z,17.76
2017-06-19T02:20:21.698Z,17.81
2017-06-19T02:21:21.680Z,17.81
2017-06-19T02:22:21.994Z,17.81
2017-06-19T02:23:21.977Z,17.76
2017-06-19T02:24:21.655Z,17.76
2017-06-19T02:25:21.646Z,17.79
2017-06-19T02:26:21.632Z,17.81
2017-06-19T02:27:21.930Z,17.81
2017-06-19T02:28:21.931Z,17.78
2017-06-19T02:29:21.916Z,17.81
2017-06-19T02:30:21.283Z,17.76
2017-06-19T02:31:21.898Z,17.74
2017-06-19T02:32:21.259Z,17.73
2017-06-19T02:33:21.877Z,17.79
2017-06-19T02:34:21.941Z,17.7
2017-06-19T02:35:21.545Z,17.74
2017-06-19T02:36:21.534Z,17.74
2017-06-19T02:37:21.215Z,17.7
2017-06-19T02:38:21.208Z,17.64
2017-06-19T02:39:21.503Z,17.66
2017-06-19T02:40:21.809Z,17.71
2017-06-19T02:41:21.483Z,17.69
2017-06-19T02:42:21.790Z,17.63
2017-06-19T02:43:21.465Z,17.57
2017-06-19T02:44:21.143Z,17.54
2017-06-19T02:45:21.442Z,17.67
2017-06-19T02:46:21.782Z,17.66
2017-06-19T02:47:21.430Z,17.62
2017-06-19T02:48:21.762Z,17.51
2017-06-19T02:49:21.092Z,17.54
2017-06-19T02:50:21.395Z,17.46
2017-06-19T02:51:21.390Z,17.44
2017-06-19T02:52:21.375Z,17.38
2017-06-19T02:53:21.365Z,17.47
2017-06-19T02:54:21.668Z,17.43
2017-06-19T02:55:21.662Z,17.55
2017-06-19T02:56:21.649Z,17.48
2017-06-19T02:57:21.648Z,17.5
2017-06-19T02:58:21.627Z,17.46
2017-06-19T02:59:21.616Z,17.33
2017-06-19T03:00:21.608Z,17.38
2017-06-19T03:01:21.287Z,17.4
2017-06-19T03:02:21.592Z,17.36
2017-06-19T03:03:21.271Z,17.33
2017-06-19T03:04:21.256Z,17.35
2017-06-19T03:05:21.565Z,17.32
2017-06-19T03:06:21.239Z,17.36
2017-06-19T03:07:20.915Z,17.3
2017-06-19T03:08:21.537Z,17.32
2017-06-19T03:09:21.521Z,17.33
2017-06-19T03:10:20.885Z,17.29
2017-06-19T03:11:21.499Z,17.22
2017-06-19T03:12:21.225Z,17.25
2017-06-19T03:13:20.859Z,17.2
2017-06-19T03:14:21.482Z,17.23
2017-06-19T03:15:21.461Z,17.23
2017-06-19T03:16:21.136Z,17.17
2017-06-19T03:17:20.821Z,17.18
2017-06-19T03:18:21.119Z,17.18
2017-06-19T03:19:21.106Z,17.17
2017-06-19T03:20:20.784Z,17.17
2017-06-19T03:21:21.092Z,17.13
2017-06-19T03:22:20.780Z,17.18
2017-06-19T03:23:21.070Z,17.15
2017-06-19T03:24:21.370Z,17.14
2017-06-19T03:25:20.730Z,17.17
2017-06-19T03:26:21.037Z,17.17
2017-06-19T03:27:21.030Z,17.2
2017-06-19T03:28:21.326Z,17.18
2017-06-19T03:29:21.207Z,17.17
2017-06-19T03:30:21.313Z,17.15
2017-06-19T03:31:21.304Z,17.23
2017-06-19T03:32:20.711Z,17.17
2017-06-19T03:33:21.276Z,17.18
2017-06-19T03:34:20.950Z,17.18
2017-06-19T03:35:21.257Z,17.18
2017-06-19T03:36:20.931Z,17.22
2017-06-19T03:37:20.921Z,17.18
2017-06-19T03:38:20.947Z,17.15
2017-06-19T03:39:20.902Z,17.23
2017-06-19T03:40:20.579Z,17.22
2017-06-19T03:41:20.883Z,17.18
2017-06-19T03:42:21.186Z,17.26
2017-06-19T03:43:21.182Z,17.17
2017-06-19T03:44:20.848Z,17.17
2017-06-19T03:45:20.536Z,17.22
2017-06-19T03:46:21.141Z,17.23
2017-06-19T03:47:20.824Z,17.22
2017-06-19T03:48:20.816Z,17.25
2017-06-19T03:49:20.494Z,17.23
2017-06-19T03:50:20.480Z,17.23
2017-06-19T03:51:20.779Z,17.23
2017-06-19T03:52:20.460Z,17.29
2017-06-19T03:53:21.073Z,17.28
2017-06-19T03:54:20.748Z,17.3
2017-06-19T03:55:20.743Z,17.3
2017-06-19T03:56:20.420Z,17.28
2017-06-19T03:57:21.084Z,17.29
2017-06-19T03:58:21.035Z,17.28
2017-06-19T03:59:21.012Z,17.38
2017-06-19T04:00:20.387Z,17.33
2017-06-19T04:01:21.010Z,17.32
2017-06-19T04:02:20.365Z,17.3
2017-06-19T04:03:21.037Z,17.36
2017-06-19T04:04:20.651Z,17.35
2017-06-19T04:05:20.641Z,17.38
2017-06-19T04:06:20.954Z,17.4
2017-06-19T04:07:20.927Z,17.38
2017-06-19T04:08:20.623Z,17.4
2017-06-19T04:09:20.301Z,17.48
2017-06-19T04:10:20.608Z,17.4
2017-06-19T04:11:20.921Z,17.53
2017-06-19T04:12:20.920Z,17.5
2017-06-19T04:13:20.606Z,17.53
2017-06-19T04:14:20.878Z,17.46
2017-06-19T04:15:20.863Z,17.4
2017-06-19T04:16:20.215Z,17.43
2017-06-19T04:17:20.831Z,17.46
2017-06-19T04:18:20.864Z,17.54
2017-06-19T04:19:20.494Z,17.55
2017-06-19T04:20:20.488Z,17.53
2017-06-19T04:21:20.163Z,17.5
2017-06-19T04:22:20.466Z,17.64
2017-06-19T04:23:20.773Z,17.63
2017-06-19T04:24:20.757Z,17.55
2017-06-19T04:25:20.748Z,17.55
2017-06-19T04:26:20.429Z,17.67
2017-06-19T04:27:20.418Z,17.67
2017-06-19T04:28:20.720Z,17.64
2017-06-19T04:29:20.709Z,17.69
2017-06-19T04:30:20.387Z,17.7
2017-06-19T04:31:20.382Z,17.76
2017-06-19T04:32:20.685Z,17.78
2017-06-19T04:33:20.677Z,17.74
2017-06-19T04:34:20.345Z,17.74
2017-06-19T04:35:20.653Z,17.82
2017-06-19T04:36:20.645Z,17.82
2017-06-19T04:37:20.378Z,17.85
2017-06-19T04:38:20.308Z,17.79
2017-06-19T04:39:20.301Z,17.88
2017-06-19T04:40:20.318Z,17.85
2017-06-19T04:41:20.281Z,17.88
2017-06-19T04:42:19.968Z,17.88
2017-06-19T04:43:20.274Z,17.94
2017-06-19T04:44:20.584Z,18.03
2017-06-19T04:45:20.552Z,17.97
2017-06-19T04:46:19.948Z,17.92
2017-06-19T04:47:19.911Z,18.12
2017-06-19T04:48:20.210Z,18.09
2017-06-19T04:49:20.208Z,18.09
2017-06-19T04:50:19.880Z,18.18
2017-06-19T04:51:20.185Z,18.15
2017-06-19T04:52:20.178Z,18.22
2017-06-19T04:53:20.481Z,18.21
2017-06-19T04:54:20.154Z,18.19
2017-06-19T04:55:20.149Z,18.18
2017-06-19T04:56:20.139Z,18.12
2017-06-19T04:57:19.813Z,18.21
2017-06-19T04:58:19.804Z,18.27
2017-06-19T04:59:20.427Z,18.25
2017-06-19T05:00:20.097Z,18.29
2017-06-19T05:01:20.089Z,18.27
2017-06-19T05:02:19.768Z,18.36
2017-06-19T05:03:20.381Z,18.4
2017-06-19T05:04:20.369Z,18.37
2017-06-19T05:05:20.053Z,18.44
2017-06-19T05:06:20.356Z,18.46
2017-06-19T05:07:20.343Z,18.42
2017-06-19T05:08:20.335Z,18.44
2017-06-19T05:09:20.009Z,18.5
2017-06-19T05:10:20.006Z,18.54
2017-06-19T05:11:19.990Z,18.44
2017-06-19T05:12:19.992Z,18.54
2017-06-19T05:13:19.970Z,18.57
2017-06-19T05:14:20.291Z,18.58
2017-06-19T05:15:20.269Z,18.57
2017-06-19T05:16:19.945Z,18.67
2017-06-19T05:17:19.940Z,18.7
2017-06-19T05:18:19.613Z,18.62
2017-06-19T05:19:19.920Z,18.73
2017-06-19T05:20:19.906Z,18.76
2017-06-19T05:21:20.212Z,18.77
2017-06-19T05:22:19.577Z,18.8
2017-06-19T05:23:20.192Z,18.83
2017-06-19T05:24:20.182Z,18.8
2017-06-19T05:25:20.176Z,18.86
2017-06-19T05:26:19.851Z,18.91
2017-06-19T05:27:19.844Z,18.9
2017-06-19T05:28:19.519Z,18.91
2017-06-19T05:29:20.225Z,18.95
2017-06-19T05:30:20.159Z,18.87
2017-06-19T05:31:19.804Z,18.84
2017-06-19T05:32:20.115Z,18.91
2017-06-19T05:33:19.473Z,18.95
2017-06-19T05:34:19.778Z,18.98
2017-06-19T05:35:19.769Z,19.06
2017-06-19T05:36:19.766Z,19.01
2017-06-19T05:37:19.439Z,19.11
2017-06-19T05:38:19.436Z,19.14
2017-06-19T05:39:19.733Z,19.23
2017-06-19T05:40:20.041Z,19.2
2017-06-19T05:41:19.402Z,19.28
2017-06-19T05:42:19.710Z,19.33
2017-06-19T05:43:19.381Z,19.32
2017-06-19T05:44:19.425Z,19.35
2017-06-19T05:45:19.686Z,19.36
2017-06-19T05:46:19.983Z,19.46
2017-06-19T05:47:19.665Z,19.42
2017-06-19T05:48:19.648Z,19.53
2017-06-19T05:49:19.332Z,19.48
2017-06-19T05:50:19.947Z,19.55
2017-06-19T05:51:19.310Z,19.55
2017-06-19T05:52:19.620Z,19.55
2017-06-19T05:53:19.606Z,19.66
2017-06-19T05:54:19.913Z,19.66
2017-06-19T05:55:19.903Z,19.61
2017-06-19T05:56:19.941Z,19.63
2017-06-19T05:57:19.887Z,19.79
2017-06-19T05:58:19.569Z,19.69
2017-06-19T05:59:19.249Z,19.78
2017-06-19T06:00:19.863Z,19.76
2017-06-19T06:01:19.854Z,19.8
2017-06-19T06:02:19.534Z,19.86
2017-06-19T06:03:19.528Z,19.87
2017-06-19T06:04:19.512Z,19.91
2017-06-19T06:05:19.505Z,19.93
2017-06-19T06:06:19.808Z,20.02
2017-06-19T06:07:19.496Z,19.97
2017-06-19T06:08:19.485Z,20.06
2017-06-19T06:09:19.159Z,20.13
2017-06-19T06:10:19.775Z,20.18
2017-06-19T06:11:19.772Z,20.23
2017-06-19T06:12:19.762Z,20.23
2017-06-19T06:13:19.434Z,20.28
2017-06-19T06:14:19.430Z,20.28
2017-06-19T06:15:19.111Z,20.41
2017-06-19T06:16:19.726Z,20.41
2017-06-19T06:17:19.405Z,20.91
2017-06-19T06:18:19.709Z,21.61
2017-06-19T06:19:19.390Z,22.12
2017-06-19T06:20:19.381Z,22.44
2017-06-19T06:21:19.688Z,22.46
2017-06-19T06:22:19.366Z,22.32
2017-06-19T06:23:19.361Z,22.34
2017-06-19T06:24:19.664Z,22.47
2017-06-19T06:25:19.348Z,22.8
2017-06-19T06:26:19.341Z,22.83
2017-06-19T06:27:19.329Z,22.75
2017-06-19T06:28:19.639Z,22.46
2017-06-19T06:29:19.633Z,22.29
2017-06-19T06:30:18.996Z,22.22
2017-06-19T06:31:19.307Z,22.04
2017-06-19T06:32:19.610Z,22.01
2017-06-19T06:33:19.609Z,21.9
2017-06-19T06:34:19.284Z,21.91
2017-06-19T06:35:19.590Z,21.88
2017-06-19T06:36:19.585Z,21.83
2017-06-19T06:37:19.578Z,21.78
2017-06-19T06:38:18.945Z,21.81
2017-06-19T06:39:19.251Z,21.76
2017-06-19T06:40:19.244Z,21.75
2017-06-19T06:41:19.242Z,21.76
2017-06-19T06:42:19.235Z,21.85
2017-06-19T06:43:19.222Z,21.78
2017-06-19T06:44:19.217Z,21.85
2017-06-19T06:45:19.525Z,21.81
2017-06-19T06:46:19.209Z,21.9
2017-06-19T06:47:18.886Z,22.23
2017-06-19T06:48:18.877Z,23.22
2017-06-19T06:49:19.184Z,24.38
2017-06-19T06:50:19.179Z,25.68
2017-06-19T06:51:19.513Z,26.79
2017-06-19T06:52:19.169Z,27.73
2017-06-19T06:53:19.477Z,28.58
2017-06-19T06:54:19.157Z,29.37
2017-06-19T06:55:19.156Z,29.96
2017-06-19T06:56:18.833Z,30.5
2017-06-19T06:57:19.150Z,31.01
2017-06-19T06:58:19.451Z,31.48
2017-06-19T06:59:18.819Z,31.91
2017-06-19T07:00:19.442Z,32.3
2017-06-19T07:01:18.809Z,32.64
2017-06-19T07:02:19.115Z,32.91
2017-06-19T07:03:18.799Z,33.13
2017-06-19T07:04:18.791Z,33.48
2017-06-19T07:05:19.412Z,33.48
2017-06-19T07:06:19.406Z,33.52
2017-06-19T07:07:19.404Z,33.43
2017-06-19T07:08:19.400Z,33.06
2017-06-19T07:09:19.086Z,32.49
2017-06-19T07:10:19.390Z,31.85
2017-06-19T07:11:19.071Z,31.55
2017-06-19T07:12:19.374Z,31.57
2017-06-19T07:13:19.370Z,31.87
2017-06-19T07:14:18.742Z,32.25
2017-06-19T07:15:18.738Z,32.67
2017-06-19T07:16:19.046Z,32.93
2017-06-19T07:17:19.349Z,33.11
2017-06-19T07:18:19.035Z,33.22
2017-06-19T07:19:19.338Z,33.39
2017-06-19T07:20:18.708Z,33.33
2017-06-19T07:21:19.019Z,33.34
2017-06-19T07:22:19.017Z,33.46
2017-06-19T07:23:19.326Z,33.68
2017-06-19T07:24:19.011Z,34.04
2017-06-19T07:25:19.316Z,34.39
2017-06-19T07:26:18.687Z,34.57
2017-06-19T07:27:18.997Z,34.7
2017-06-19T07:28:19.311Z,34.69
2017-06-19T07:29:19.312Z,34.8
2017-06-19T07:30:19.310Z,34.56
2017-06-19T07:31:18.675Z,34.38
2017-06-19T07:32:18.991Z,34.56
2017-06-19T07:33:19.300Z,34.8
2017-06-19T07:34:18.986Z,34.79
2017-06-19T07:35:18.673Z,35.06
2017-06-19T07:36:18.985Z,35.18
2017-06-19T07:37:18.987Z,35.35
2017-06-19T07:38:18.983Z,35.47
2017-06-19T07:39:19.298Z,35.86
2017-06-19T07:40:18.671Z,36
2017-06-19T07:41:18.982Z,36.15
2017-06-19T07:42:18.981Z,36.2
2017-06-19T07:43:19.290Z,36.24
2017-06-19T07:44:18.672Z,36.31
2017-06-19T07:45:19.296Z,36.43
2017-06-19T07:46:18.983Z,36.45
2017-06-19T07:47:18.987Z,36.57
2017-06-19T07:48:18.712Z,36.56
2017-06-19T07:49:18.990Z,36.79
2017-06-19T07:50:18.991Z,36.85
2017-06-19T07:51:19.308Z,36.79
2017-06-19T07:52:18.993Z,36.87
2017-06-19T07:53:19.306Z,36.68
2017-06-19T07:54:18.995Z,36.49
2017-06-19T07:55:19.000Z,36.52
2017-06-19T07:56:18.998Z,36.58
2017-06-19T07:57:19.381Z,36.58
2017-06-19T07:58:19.003Z,36.49
2017-06-19T07:59:19.001Z,36.56
2017-06-19T08:00:19.007Z,36.6
2017-06-19T08:01:19.323Z,36.76
2017-06-19T08:02:19.323Z,36.85
2017-06-19T08:03:19.329Z,36.8
2017-06-19T08:04:19.027Z,36.9
2017-06-19T08:05:19.341Z,36.75
2017-06-19T08:06:19.022Z,36.54
2017-06-19T08:07:19.341Z,36.77
2017-06-19T08:08:19.371Z,36.98
2017-06-19T08:09:18.716Z,36.99
2017-06-19T08:10:19.029Z,37.12
2017-06-19T08:11:19.343Z,37.12
2017-06-19T08:12:19.034Z,37.24
2017-06-19T08:13:19.352Z,37.05
2017-06-19T08:14:19.352Z,37.16
2017-06-19T08:15:19.353Z,37.23
2017-06-19T08:16:18.733Z,37.41
2017-06-19T08:17:19.362Z,37.24
2017-06-19T08:18:19.050Z,37.38
2017-06-19T08:19:18.744Z,37.5
2017-06-19T08:20:19.369Z,37.55
2017-06-19T08:21:18.744Z,37.68
2017-06-19T08:22:19.378Z,37.76
2017-06-19T08:23:18.756Z,37.8
2017-06-19T08:24:19.068Z,37.88
2017-06-19T08:25:19.385Z,37.99
2017-06-19T08:26:19.393Z,37.98
2017-06-19T08:27:19.085Z,37.81
2017-06-19T08:28:18.803Z,37.86
2017-06-19T08:29:19.092Z,37.9
2017-06-19T08:30:19.406Z,37.96
2017-06-19T08:31:19.096Z,37.86
2017-06-19T08:32:19.098Z,37.68
2017-06-19T08:33:19.414Z,37.55
2017-06-19T08:34:19.106Z,37.66
2017-06-19T08:35:19.109Z,37.88
2017-06-19T08:36:19.425Z,37.95
2017-06-19T08:37:19.112Z,38.12
2017-06-19T08:38:18.811Z,38.15
2017-06-19T08:39:19.432Z,38.34
2017-06-19T08:40:19.134Z,38.29
2017-06-19T08:41:19.129Z,38.38
2017-06-19T08:42:19.448Z,38.48
2017-06-19T08:43:19.135Z,38.36
2017-06-19T08:44:18.825Z,38.45
2017-06-19T08:45:18.830Z,38.52
2017-06-19T08:46:19.152Z,38.46
2017-06-19T08:47:19.152Z,38.07
2017-06-19T08:48:19.159Z,37.98
2017-06-19T08:49:19.162Z,37.93
2017-06-19T08:50:19.164Z,38.07
2017-06-19T08:51:18.862Z,37.86
2017-06-19T08:52:19.527Z,37.76
2017-06-19T08:53:19.177Z,37.48
2017-06-19T08:54:19.495Z,36.97
2017-06-19T08:55:19.183Z,36.29
2017-06-19T08:56:19.500Z,35.57
2017-06-19T08:57:19.188Z,34.88
2017-06-19T08:58:19.190Z,34.39
2017-06-19T08:59:19.510Z,33.95
2017-06-19T09:00:19.512Z,33.73
2017-06-19T09:01:18.892Z,33.53
2017-06-19T09:02:19.206Z,33.45
2017-06-19T09:03:19.236Z,33.2
2017-06-19T09:04:19.527Z,32.81
2017-06-19T09:05:19.210Z,32.61
2017-06-19T09:06:19.523Z,32.24
2017-06-19T09:07:19.213Z,31.99
2017-06-19T09:08:19.214Z,31.75
2017-06-19T09:09:19.218Z,31.53
2017-06-19T09:10:19.217Z,31.26
2017-06-19T09:11:19.221Z,31.23
2017-06-19T09:12:19.541Z,30.99
2017-06-19T09:13:19.532Z,30.96
2017-06-19T09:14:19.533Z,30.96
2017-06-19T09:15:19.222Z,31.57
2017-06-19T09:16:19.535Z,32.15
2017-06-19T09:17:19.539Z,32.81
2017-06-19T09:18:19.543Z,33.41
2017-06-19T09:19:19.235Z,33.97
2017-06-19T09:20:18.919Z,34.48
2017-06-19T09:21:18.924Z,34.7
2017-06-19T09:22:19.237Z,35.18
2017-06-19T09:23:19.240Z,35.51
2017-06-19T09:24:19.554Z,35.81
2017-06-19T09:25:19.556Z,36.07
2017-06-19T09:26:19.561Z,36.27
2017-06-19T09:27:19.594Z,36.39
2017-06-19T09:28:19.566Z,36.65
2017-06-19T09:29:19.262Z,36.8
2017-06-19T09:30:19.775Z,37.04
2017-06-19T09:31:19.586Z,37.07
2017-06-19T09:32:19.588Z,37.12
2017-06-19T09:33:19.273Z,37.07
2017-06-19T09:34:19.280Z,36.98
2017-06-19T09:35:19.595Z,36.97
2017-06-19T09:36:19.290Z,36.95
2017-06-19T09:37:18.982Z,36.98
2017-06-19T09:38:19.609Z,36.94
2017-06-19T09:39:18.987Z,36.97
2017-06-19T09:40:19.619Z,37.16
2017-06-19T09:41:19.308Z,37.33
2017-06-19T09:42:19.009Z,37.19
2017-06-19T09:43:19.636Z,37.07
2017-06-19T09:44:19.330Z,37.12
2017-06-19T09:45:19.656Z,37.21
2017-06-19T09:46:19.332Z,37.12
2017-06-19T09:47:19.340Z,37.09
2017-06-19T09:48:19.655Z,37.05
2017-06-19T09:49:19.347Z,37.07
2017-06-19T09:50:19.353Z,36.99
2017-06-19T09:51:19.673Z,36.95
2017-06-19T09:52:19.360Z,36.95
2017-06-19T09:53:19.377Z,36.94
2017-06-19T09:54:19.681Z,36.95
2017-06-19T09:55:19.695Z,36.97
2017-06-19T09:56:19.691Z,36.99
2017-06-19T09:57:19.698Z,36.94
2017-06-19T09:58:19.393Z,36.77
2017-06-19T09:59:19.394Z,36.76
2017-06-19T10:00:19.460Z,36.87
2017-06-19T10:01:19.094Z,36.85
2017-06-19T10:02:19.721Z,36.79
2017-06-19T10:03:19.416Z,36.9
2017-06-19T10:04:19.415Z,36.87
2017-06-19T10:05:19.734Z,37.05
2017-06-19T10:06:19.430Z,37.23
2017-06-19T10:07:19.743Z,37.26
2017-06-19T10:08:19.123Z,37.21
2017-06-19T10:09:19.443Z,37.2
2017-06-19T10:10:19.448Z,37.29
2017-06-19T10:11:19.457Z,37.35
2017-06-19T10:12:19.457Z,37.35
2017-06-19T10:13:19.781Z,37.47
2017-06-19T10:14:19.471Z,37.77
2017-06-19T10:15:19.473Z,37.81
2017-06-19T10:16:19.479Z,37.88
2017-06-19T10:17:19.799Z,37.16
2017-06-19T10:18:19.487Z,37.2
2017-06-19T10:19:19.180Z,37.41
2017-06-19T10:20:19.500Z,37.61
2017-06-19T10:21:19.507Z,37.7
2017-06-19T10:22:19.514Z,37.7
2017-06-19T10:23:19.834Z,37.71
2017-06-19T10:24:19.519Z,37.9
2017-06-19T10:25:19.837Z,37.85
2017-06-19T10:26:19.532Z,38.14
2017-06-19T10:27:19.538Z,38.2
2017-06-19T10:28:19.545Z,38.24
2017-06-19T10:29:19.548Z,38.24
2017-06-19T10:30:19.569Z,38.46
2017-06-19T10:31:19.255Z,38.52
2017-06-19T10:32:19.572Z,38.6
2017-06-19T10:33:19.890Z,38.64
2017-06-19T10:34:19.301Z,38.6
2017-06-19T10:35:19.592Z,38.58
2017-06-19T10:36:19.590Z,38.73
2017-06-19T10:37:19.287Z,38.8
2017-06-19T10:38:19.919Z,38.96
2017-06-19T10:39:19.611Z,39.03
2017-06-19T10:40:19.624Z,38.76
2017-06-19T10:41:19.932Z,38.66
2017-06-19T10:42:19.653Z,38.7
2017-06-19T10:43:19.640Z,38.55
2017-06-19T10:44:19.327Z,38.66
2017-06-19T10:45:19.646Z,38.58
2017-06-19T10:46:19.347Z,38.48
2017-06-19T10:47:19.662Z,38.26
2017-06-19T10:48:19.665Z,37.89
2017-06-19T10:49:19.675Z,37.88
2017-06-19T10:50:19.682Z,37.89
2017-06-19T10:51:19.997Z,37.33
2017-06-19T10:52:20.013Z,37.28
2017-06-19T10:53:20.014Z,37.51
2017-06-19T10:54:19.706Z,37.74
2017-06-19T10:55:20.027Z,37.86
2017-06-19T10:56:20.033Z,38.01
2017-06-19T10:57:19.733Z,38.18
2017-06-19T10:58:20.046Z,38.12
2017-06-19T10:59:20.058Z,38.2
2017-06-19T11:00:20.057Z,38.27
2017-06-19T11:01:19.758Z,38.41
2017-06-19T11:02:19.760Z,38.41
2017-06-19T11:03:19.766Z,38.27
2017-06-19T11:04:19.773Z,38.33
2017-06-19T11:05:19.777Z,38.38
2017-06-19T11:06:19.788Z,38.39
2017-06-19T11:07:19.480Z,38.48
2017-06-19T11:08:19.797Z,38.63
2017-06-19T11:09:19.808Z,38.71
2017-06-19T11:10:19.501Z,38.63
2017-06-19T11:11:20.136Z,38.45
2017-06-19T11:12:19.824Z,38.1
2017-06-19T11:13:19.832Z,38.07
2017-06-19T11:14:19.531Z,37.96
2017-06-19T11:15:19.531Z,38.01
2017-06-19T11:16:20.168Z,37.88
2017-06-19T11:17:19.861Z,37.9
2017-06-19T11:18:19.873Z,37.92
2017-06-19T11:19:19.563Z,38.04
2017-06-19T11:20:19.885Z,37.96
2017-06-19T11:21:20.200Z,37.89
2017-06-19T11:22:19.583Z,38.03
2017-06-19T11:23:20.220Z,38.03
2017-06-19T11:24:19.597Z,38.05
2017-06-19T11:25:20.248Z,37.98
2017-06-19T11:26:19.926Z,38.03
2017-06-19T11:27:19.965Z,38.14
2017-06-19T11:28:19.626Z,38.24
2017-06-19T11:29:20.258Z,38.34
2017-06-19T11:30:20.466Z,38.52
2017-06-19T11:31:19.955Z,38.57
2017-06-19T11:32:20.273Z,38.36
2017-06-19T11:33:20.284Z,38.36
2017-06-19T11:34:19.976Z,38.52
2017-06-19T11:35:20.315Z,38.55
2017-06-19T11:36:20.303Z,38.58
2017-06-19T11:37:20.000Z,38.73
2017-06-19T11:38:20.002Z,38.75
2017-06-19T11:39:19.696Z,38.8
2017-06-19T11:40:20.333Z,38.83
2017-06-19T11:41:20.026Z,39.01
2017-06-19T11:42:20.340Z,38.99
2017-06-19T11:43:20.040Z,38.99
2017-06-19T11:44:19.734Z,38.9
2017-06-19T11:45:20.052Z,38.68
2017-06-19T11:46:19.746Z,38.71
2017-06-19T11:47:19.751Z,38.85
2017-06-19T11:48:20.418Z,38.87
2017-06-19T11:49:20.391Z,39.03
2017-06-19T11:50:20.085Z,39.15
2017-06-19T11:51:20.405Z,39.09
2017-06-19T11:52:20.103Z,39.24
2017-06-19T11:53:20.112Z,39.08
2017-06-19T11:54:20.113Z,39.13
2017-06-19T11:55:20.455Z,39.22
2017-06-19T11:56:20.125Z,38.85
2017-06-19T11:57:20.451Z,38.83
2017-06-19T11:58:20.452Z,38.57
2017-06-19T11:59:20.458Z,38.48
2017-06-19T12:00:19.838Z,38.6
2017-06-19T12:01:20.164Z,38.68
2017-06-19T12:02:20.480Z,39.02
2017-06-19T12:03:20.175Z,39.18
2017-06-19T12:04:20.497Z,39.3
2017-06-19T12:05:19.881Z,39.49
2017-06-19T12:06:20.506Z,39.32
2017-06-19T12:07:20.519Z,39.49
2017-06-19T12:08:20.213Z,39.49
2017-06-19T12:09:20.213Z,39.64
2017-06-19T12:10:19.910Z,39.47
2017-06-19T12:11:20.228Z,39.58
2017-06-19T12:12:19.920Z,39.56
2017-06-19T12:13:20.241Z,39.58
2017-06-19T12:14:20.560Z,39.81
2017-06-19T12:15:20.257Z,39.89
2017-06-19T12:16:20.573Z,39.76
2017-06-19T12:17:20.577Z,39.65
2017-06-19T12:18:20.276Z,39.01
2017-06-19T12:19:20.595Z,38.86
2017-06-19T12:20:20.601Z,39.02
2017-06-19T12:21:20.617Z,39.14
2017-06-19T12:22:20.645Z,39.1
2017-06-19T12:23:20.621Z,39.25
2017-06-19T12:24:20.648Z,39.28
2017-06-19T12:25:20.333Z,39.43
2017-06-19T12:26:20.016Z,39.58
2017-06-19T12:27:20.021Z,39.35
2017-06-19T12:28:20.350Z,39.44
2017-06-19T12:29:20.349Z,39.58
2017-06-19T12:30:20.675Z,39.76
2017-06-19T12:31:20.365Z,39.69
2017-06-19T12:32:20.059Z,39.62
2017-06-19T12:33:20.691Z,39.55
2017-06-19T12:34:20.698Z,39.62
2017-06-19T12:35:20.704Z,39.78
2017-06-19T12:36:20.710Z,39.83
2017-06-19T12:37:20.715Z,39.73
2017-06-19T12:38:20.731Z,39.76
2017-06-19T12:39:20.741Z,39.89
2017-06-19T12:40:20.428Z,39.88
2017-06-19T12:41:20.120Z,39.89
2017-06-19T12:42:20.442Z,39.86
2017-06-19T12:43:20.759Z,39.8
2017-06-19T12:44:20.455Z,39.65
2017-06-19T12:45:20.146Z,39.59
2017-06-19T12:46:20.787Z,39.51
2017-06-19T12:47:20.163Z,39.59
2017-06-19T12:48:20.797Z,39.62
2017-06-19T12:49:20.177Z,39.69
2017-06-19T12:50:20.494Z,39.76
2017-06-19T12:51:20.503Z,39.77
2017-06-19T12:52:20.826Z,39.84
2017-06-19T12:53:20.833Z,39.78
2017-06-19T12:54:20.215Z,39.99
2017-06-19T12:55:20.850Z,39.95